Time;durP1;ratioP1;P1;durP2;ratioP2;P2;SDS_P1;SDS_P2;PMS_P1;PMS_P2;Temp;Humidity;BMP_temperature;BMP_pressure;BME280_temperature;BME280_humidity;BME280_pressure;Samples;Min_cycle;Max_cycle;Signal;HPM_P1;HPM_P2
2023/07/08 00:00:21;;;;;;;0.20;0.13;;;;;;;;;;1039301;28;20064;-73
2023/07/08 00:00:52;;;;;;;0.38;0.35;;;;;;;;;;1039391;28;20026;-73
2023/07/08 00:01:22;;;;;;;0.20;0.20;;;;;;;;;;1039874;28;20127;-73
2023/07/08 00:01:54;;;;;;;0.60;0.60;;;;;;;;;;1039187;28;20030;-73
2023/07/08 00:02:24;;;;;;;0.50;0.50;;;;;;;;;;1039494;28;20046;-73
2023/07/08 00:02:55;;;;;;;0.35;0.20;;;;;;;;;;1038436;28;20073;-73
2023/07/08 00:03:25;;;;;;;0.65;0.65;;;;;;;;;;1043921;28;20024;-73
2023/07/08 00:03:56;;;;;;;2.40;1.23;;;;;;;;;;1044086;28;20029;-73
2023/07/08 00:04:26;;;;;;;0.10;0.10;;;;;;;;;;1039434;28;20021;-73
2023/07/08 00:04:57;;;;;;;0.00;0.00;;;;;;;;;;1038945;28;20025;-73
2023/07/08 00:05:28;;;;;;;0.10;0.10;;;;;;;;;;1039596;28;20081;-73
2023/07/08 00:05:58;;;;;;;0.28;0.28;;;;;;;;;;1039613;28;20029;-73
2023/07/08 00:06:29;;;;;;;0.10;0.10;;;;;;;;;;1043721;28;20012;-73
2023/07/08 00:06:59;;;;;;;1.17;0.22;;;;;;;;;;1043751;28;20079;-73
2023/07/08 00:07:30;;;;;;;0.13;0.13;;;;;;;;;;1043920;28;20458;-73
2023/07/08 00:08:00;;;;;;;0.00;0.00;;;;;;;;;;1043564;28;20036;-73
2023/07/08 00:08:31;;;;;;;0.00;0.00;;;;;;;;;;1044159;28;20115;-73
2023/07/08 00:09:01;;;;;;;0.90;0.68;;;;;;;;;;1043765;28;20021;-73
2023/07/08 00:09:32;;;;;;;0.10;0.10;;;;;;;;;;1039133;28;20503;-73
2023/07/08 00:10:10;;;;;;;0.10;0.10;;;;;;;;;;1039335;28;20017;-73
2023/07/08 00:10:41;;;;;;;0.63;0.43;;;;;;;;;;1038845;28;20029;-73
2023/07/08 00:11:12;;;;;;;0.00;0.00;;;;;;;;;;1038171;28;20158;-73
2023/07/08 00:11:42;;;;;;;0.10;0.10;;;;;;;;;;1038910;28;20064;-73
2023/07/08 00:12:13;;;;;;;0.90;0.77;;;;;;;;;;1039267;28;20523;-73
2023/07/08 00:12:44;;;;;;;6.45;1.20;;;;;;;;;;1039440;28;20025;-73
2023/07/08 00:13:15;;;;;;;0.10;0.10;;;;;;;;;;1035514;28;20021;-73
2023/07/08 00:13:45;;;;;;;0.60;0.60;;;;;;;;;;1035147;28;20021;-73
2023/07/08 00:14:16;;;;;;;0.00;0.00;;;;;;;;;;1039519;28;20072;-73
2023/07/08 00:14:47;;;;;;;0.10;0.10;;;;;;;;;;1043705;28;20025;-73
2023/07/08 00:15:18;;;;;;;0.00;0.00;;;;;;;;;;1039951;28;20163;-73
2023/07/08 00:15:49;;;;;;;0.30;0.30;;;;;;;;;;1039062;28;20018;-73
2023/07/08 00:16:19;;;;;;;1.35;1.02;;;;;;;;;;1039617;28;20075;-73
2023/07/08 00:16:51;;;;;;;0.20;0.20;;;;;;;;;;1039234;28;20532;-73
2023/07/08 00:17:21;;;;;;;0.85;0.70;;;;;;;;;;1039965;28;20032;-73
2023/07/08 00:17:52;;;;;;;0.22;0.22;;;;;;;;;;1039101;28;20025;-73
2023/07/08 00:18:22;;;;;;;0.60;0.55;;;;;;;;;;1039457;28;20083;-73
2023/07/08 00:18:53;;;;;;;0.55;0.55;;;;;;;;;;1039311;28;20473;-73
2023/07/08 00:19:23;;;;;;;0.00;0.00;;;;;;;;;;1039874;28;20370;-73
2023/07/08 00:19:54;;;;;;;2.83;0.38;;;;;;;;;;1039323;28;20025;-73
2023/07/08 00:20:32;;;;;;;0.20;0.20;;;;;;;;;;1038351;28;20025;-73
2023/07/08 00:21:04;;;;;;;0.00;0.00;;;;;;;;;;1039378;28;20448;-73
2023/07/08 00:21:35;;;;;;;0.08;0.08;;;;;;;;;;1041078;28;20052;-73
2023/07/08 00:22:11;;;;;;;0.13;0.13;;;;;;;;;;1041613;28;20131;-73
2023/07/08 00:22:42;;;;;;;0.00;0.00;;;;;;;;;;1041333;28;20028;-73
2023/07/08 00:23:12;;;;;;;0.00;0.00;;;;;;;;;;1041176;28;20029;-73
2023/07/08 00:23:44;;;;;;;0.00;0.00;;;;;;;;;;1039194;28;20185;-73
2023/07/08 00:24:14;;;;;;;0.08;0.08;;;;;;;;;;1036127;28;20022;-73
2023/07/08 00:24:45;;;;;;;0.00;0.00;;;;;;;;;;1040108;28;20560;-73
2023/07/08 00:25:21;;;;;;;0.00;0.00;;;;;;;;;;1040320;28;20076;-73
2023/07/08 00:25:52;;;;;;;0.43;0.17;;;;;;;;;;1036445;28;20027;-73
2023/07/08 00:26:24;;;;;;;0.10;0.10;;;;;;;;;;1040870;28;20025;-73
2023/07/08 00:26:54;;;;;;;0.10;0.10;;;;;;;;;;1040033;28;20023;-73
2023/07/08 00:27:25;;;;;;;0.10;0.10;;;;;;;;;;1040475;28;20018;-73
2023/07/08 00:27:55;;;;;;;0.10;0.10;;;;;;;;;;1044356;28;20067;-73
2023/07/08 00:28:26;;;;;;;0.55;0.45;;;;;;;;;;1044615;28;20531;-73
2023/07/08 00:28:56;;;;;;;0.10;0.10;;;;;;;;;;1044560;28;20028;-73
2023/07/08 00:29:27;;;;;;;0.00;0.00;;;;;;;;;;1044596;28;20036;-73
2023/07/08 00:30:00;;;;;;;0.20;0.10;;;;;;;;;;1044339;28;20450;-73
2023/07/08 00:30:31;;;;;;;0.10;0.10;;;;;;;;;;1044723;28;20564;-73
2023/07/08 00:31:01;;;;;;;0.52;0.38;;;;;;;;;;1044968;28;20023;-73
2023/07/08 00:31:32;;;;;;;0.52;0.45;;;;;;;;;;1039958;28;20025;-73
2023/07/08 00:32:08;;;;;;;0.20;0.15;;;;;;;;;;1039983;28;20029;-73
2023/07/08 00:32:41;;;;;;;0.47;0.40;;;;;;;;;;1040110;28;20112;-73
2023/07/08 00:33:12;;;;;;;0.77;0.60;;;;;;;;;;1041817;28;20465;-73
2023/07/08 00:33:42;;;;;;;0.55;0.17;;;;;;;;;;1044332;28;20025;-73
2023/07/08 00:34:13;;;;;;;2.05;0.85;;;;;;;;;;1044557;28;20024;-73
2023/07/08 00:34:43;;;;;;;0.93;0.10;;;;;;;;;;1044577;28;20070;-73
2023/07/08 00:35:14;;;;;;;0.10;0.10;;;;;;;;;;1040610;28;20072;-73
2023/07/08 00:35:45;;;;;;;0.05;0.05;;;;;;;;;;1039958;28;20030;-73
2023/07/08 00:36:17;;;;;;;1.00;1.00;;;;;;;;;;1040073;28;20028;-73
2023/07/08 00:36:47;;;;;;;0.93;0.28;;;;;;;;;;1040132;28;20570;-73
2023/07/08 00:37:18;;;;;;;0.30;0.30;;;;;;;;;;1040177;28;20053;-73
2023/07/08 00:37:52;;;;;;;0.10;0.10;;;;;;;;;;1040257;28;20044;-73
2023/07/08 00:38:27;;;;;;;0.40;0.40;;;;;;;;;;1044356;28;20427;-73
2023/07/08 00:38:58;;;;;;;0.00;0.00;;;;;;;;;;1043834;28;20155;-73
2023/07/08 00:39:29;;;;;;;0.00;0.00;;;;;;;;;;1044656;28;20013;-73
2023/07/08 00:39:59;;;;;;;1.48;0.65;;;;;;;;;;1044079;28;20029;-73
2023/07/08 00:40:31;;;;;;;0.75;0.68;;;;;;;;;;1044655;28;20021;-73
2023/07/08 00:41:01;;;;;;;0.13;0.13;;;;;;;;;;1044459;28;20469;-73
2023/07/08 00:41:38;;;;;;;0.10;0.10;;;;;;;;;;1044529;28;20025;-73
2023/07/08 00:42:17;;;;;;;0.28;0.28;;;;;;;;;;1044905;28;20029;-73
2023/07/08 00:42:48;;;;;;;0.00;0.00;;;;;;;;;;1039828;28;20320;-73
2023/07/08 00:43:24;;;;;;;0.15;0.15;;;;;;;;;;1039771;28;20025;-73
2023/07/08 00:43:58;;;;;;;0.63;0.50;;;;;;;;;;1039507;28;20029;-73
2023/07/08 00:44:28;;;;;;;0.75;0.75;;;;;;;;;;1041209;28;20438;-73
2023/07/08 00:44:59;;;;;;;0.10;0.10;;;;;;;;;;1044515;28;20028;-73
2023/07/08 00:45:37;;;;;;;0.52;0.15;;;;;;;;;;1040103;28;20087;-73
2023/07/08 00:46:25;;;;;;;0.00;0.00;;;;;;;;;;1040046;28;20449;-73
2023/07/08 00:47:04;;;;;;;0.10;0.10;;;;;;;;;;1040276;28;20021;-73
2023/07/08 00:47:34;;;;;;;0.75;0.40;;;;;;;;;;1044060;28;20472;-73
2023/07/08 00:48:24;;;;;;;0.43;0.43;;;;;;;;;;1044546;28;20116;-73
2023/07/08 00:48:57;;;;;;;0.10;0.10;;;;;;;;;;1044805;28;20024;-73
2023/07/08 00:49:40;;;;;;;2.72;0.75;;;;;;;;;;1040013;28;20029;-73
2023/07/08 00:50:11;;;;;;;0.30;0.30;;;;;;;;;;1039159;28;20030;-73
2023/07/08 00:50:42;;;;;;;0.00;0.00;;;;;;;;;;1040053;28;20025;-73
2023/07/08 00:51:12;;;;;;;0.00;0.00;;;;;;;;;;1042091;28;20108;-73
2023/07/08 00:51:43;;;;;;;0.20;0.20;;;;;;;;;;1043999;28;20025;-73
2023/07/08 00:52:18;;;;;;;0.40;0.40;;;;;;;;;;1044154;28;20090;-73
2023/07/08 00:52:48;;;;;;;0.90;0.65;;;;;;;;;;1043668;28;20056;-73
2023/07/08 00:53:24;;;;;;;0.08;0.08;;;;;;;;;;1044929;28;20431;-73
2023/07/08 00:53:54;;;;;;;0.00;0.00;;;;;;;;;;1043106;28;20032;-73
2023/07/08 00:54:25;;;;;;;0.00;0.00;;;;;;;;;;1043464;28;20377;-73
2023/07/08 00:54:58;;;;;;;0.28;0.28;;;;;;;;;;1044413;28;20112;-73
2023/07/08 00:55:28;;;;;;;0.00;0.00;;;;;;;;;;1045060;28;20079;-73
2023/07/08 00:56:02;;;;;;;0.00;0.00;;;;;;;;;;1039756;28;20067;-73
2023/07/08 00:56:35;;;;;;;0.00;0.00;;;;;;;;;;1040185;28;20032;-73
2023/07/08 00:57:05;;;;;;;0.00;0.00;;;;;;;;;;1039705;28;20072;-73
2023/07/08 00:57:38;;;;;;;0.00;0.00;;;;;;;;;;1040801;28;20021;-73
2023/07/08 00:58:09;;;;;;;0.03;0.03;;;;;;;;;;1044715;28;20024;-73
2023/07/08 00:58:42;;;;;;;0.43;0.43;;;;;;;;;;1043402;28;20020;-73
2023/07/08 00:59:19;;;;;;;0.00;0.00;;;;;;;;;;1043882;28;20025;-73
2023/07/08 00:59:52;;;;;;;0.05;0.05;;;;;;;;;;1043715;28;20021;-73
2023/07/08 01:00:22;;;;;;;0.00;0.00;;;;;;;;;;1044379;28;20025;-73
2023/07/08 01:00:54;;;;;;;0.20;0.20;;;;;;;;;;1044410;28;20024;-73
2023/07/08 01:01:25;;;;;;;0.10;0.10;;;;;;;;;;1039972;28;20096;-73
2023/07/08 01:01:57;;;;;;;0.35;0.30;;;;;;;;;;1039696;28;20084;-73
2023/07/08 01:02:27;;;;;;;0.30;0.30;;;;;;;;;;1038135;28;20034;-73
2023/07/08 01:02:58;;;;;;;0.75;0.65;;;;;;;;;;1037514;28;20505;-73
2023/07/08 01:03:29;;;;;;;0.00;0.00;;;;;;;;;;1040263;28;20061;-73
2023/07/08 01:04:04;;;;;;;0.08;0.08;;;;;;;;;;1039811;28;20116;-73
2023/07/08 01:04:37;;;;;;;0.10;0.10;;;;;;;;;;1041159;28;20091;-73
2023/07/08 01:05:10;;;;;;;0.32;0.10;;;;;;;;;;1044018;28;20492;-73
2023/07/08 01:05:41;;;;;;;3.20;0.32;;;;;;;;;;1043350;28;20036;-73
2023/07/08 01:06:12;;;;;;;0.00;0.00;;;;;;;;;;1044482;28;20017;-73
2023/07/08 01:06:45;;;;;;;0.20;0.20;;;;;;;;;;1044425;28;20057;-73
2023/07/08 01:07:21;;;;;;;0.00;0.00;;;;;;;;;;1044754;28;20021;-73
2023/07/08 01:07:54;;;;;;;0.22;0.22;;;;;;;;;;1043934;28;20155;-73
2023/07/08 01:08:28;;;;;;;0.10;0.10;;;;;;;;;;1044464;28;20032;-73
2023/07/08 01:09:04;;;;;;;0.10;0.10;;;;;;;;;;1044004;28;20058;-73
2023/07/08 01:09:44;;;;;;;0.57;0.50;;;;;;;;;;1043698;28;20032;-73
2023/07/08 01:10:18;;;;;;;0.95;0.47;;;;;;;;;;1044533;28;20481;-73
2023/07/08 01:10:53;;;;;;;0.05;0.05;;;;;;;;;;1043840;28;20029;-73
2023/07/08 01:11:23;;;;;;;1.65;0.70;;;;;;;;;;1044572;28;20027;-73
2023/07/08 01:11:55;;;;;;;0.38;0.38;;;;;;;;;;1043793;28;20021;-73
2023/07/08 01:12:29;;;;;;;0.00;0.00;;;;;;;;;;1039910;28;20033;-73
2023/07/08 01:13:02;;;;;;;0.30;0.30;;;;;;;;;;1039876;28;20128;-73
2023/07/08 01:13:40;;;;;;;0.55;0.40;;;;;;;;;;1039817;28;20069;-73
2023/07/08 01:14:12;;;;;;;0.00;0.00;;;;;;;;;;1042031;28;20531;-73
2023/07/08 01:14:43;;;;;;;0.20;0.13;;;;;;;;;;1044343;28;20021;-73
2023/07/08 01:15:14;;;;;;;0.03;0.03;;;;;;;;;;1039911;28;20022;-73
2023/07/08 01:15:46;;;;;;;0.43;0.32;;;;;;;;;;1039769;28;20029;-73
2023/07/08 01:16:16;;;;;;;0.00;0.00;;;;;;;;;;1038285;28;20533;-73
2023/07/08 01:16:47;;;;;;;0.10;0.10;;;;;;;;;;1038121;28;20128;-73
2023/07/08 01:17:17;;;;;;;0.25;0.20;;;;;;;;;;1039483;28;20060;-73
2023/07/08 01:17:53;;;;;;;0.05;0.05;;;;;;;;;;1039098;28;20029;-73
2023/07/08 01:18:24;;;;;;;0.15;0.15;;;;;;;;;;1040405;28;20032;-73
2023/07/08 01:18:55;;;;;;;1.02;0.52;;;;;;;;;;1038964;28;20538;-73
2023/07/08 01:19:32;;;;;;;0.10;0.10;;;;;;;;;;1041179;28;20028;-73
2023/07/08 01:20:06;;;;;;;0.38;0.38;;;;;;;;;;1044268;28;20143;-73
2023/07/08 01:20:37;;;;;;;0.20;0.20;;;;;;;;;;1044542;28;20536;-73
2023/07/08 01:21:27;;;;;;;0.47;0.47;;;;;;;;;;1044375;28;20021;-73
2023/07/08 01:22:00;;;;;;;0.10;0.10;;;;;;;;;;1038952;28;20551;-73
2023/07/08 01:22:32;;;;;;;0.40;0.40;;;;;;;;;;1040284;28;20396;-73
2023/07/08 01:23:02;;;;;;;0.43;0.35;;;;;;;;;;1037815;28;20020;-73
2023/07/08 01:23:35;;;;;;;0.63;0.50;;;;;;;;;;1038464;28;20449;-73
2023/07/08 01:24:09;;;;;;;0.00;0.00;;;;;;;;;;1039948;28;20021;-73
2023/07/08 01:24:42;;;;;;;0.30;0.30;;;;;;;;;;1041004;28;20022;-73
2023/07/08 01:25:13;;;;;;;0.40;0.40;;;;;;;;;;1039945;28;20025;-73
2023/07/08 01:25:44;;;;;;;1.17;0.47;;;;;;;;;;1039713;28;20508;-73
2023/07/08 01:26:15;;;;;;;1.65;1.27;;;;;;;;;;1040128;28;20030;-73
2023/07/08 01:26:46;;;;;;;1.35;0.85;;;;;;;;;;1040263;28;20120;-73
2023/07/08 01:27:18;;;;;;;0.80;0.30;;;;;;;;;;1044636;28;20038;-73
2023/07/08 01:27:51;;;;;;;0.73;0.50;;;;;;;;;;1043520;28;20112;-73
2023/07/08 01:28:22;;;;;;;0.43;0.43;;;;;;;;;;1044588;28;20380;-73
2023/07/08 01:28:53;;;;;;;1.45;0.75;;;;;;;;;;1044133;28;20025;-73
2023/07/08 01:29:24;;;;;;;0.08;0.00;;;;;;;;;;1044951;28;20029;-73
2023/07/08 01:29:55;;;;;;;0.05;0.05;;;;;;;;;;1043905;28;20400;-73
2023/07/08 01:30:26;;;;;;;0.40;0.30;;;;;;;;;;1044556;28;20059;-73
2023/07/08 01:30:57;;;;;;;0.38;0.28;;;;;;;;;;1044240;28;20021;-73
2023/07/08 01:31:28;;;;;;;0.22;0.22;;;;;;;;;;1044438;28;20092;-73
2023/07/08 01:32:02;;;;;;;0.20;0.20;;;;;;;;;;1040078;28;20036;-73
2023/07/08 01:32:34;;;;;;;0.55;0.50;;;;;;;;;;1038617;28;20014;-73
2023/07/08 01:33:07;;;;;;;2.88;0.55;;;;;;;;;;1037485;28;20025;-73
2023/07/08 01:33:37;;;;;;;0.63;0.32;;;;;;;;;;1038308;28;20505;-73
2023/07/08 01:34:10;;;;;;;0.00;0.00;;;;;;;;;;1040654;28;20021;-73
2023/07/08 01:34:40;;;;;;;2.63;1.05;;;;;;;;;;1043386;28;20025;-73
2023/07/08 01:35:12;;;;;;;1.70;1.60;;;;;;;;;;1044341;28;20423;-73
2023/07/08 01:35:42;;;;;;;1.83;0.80;;;;;;;;;;1043713;28;20029;-73
2023/07/08 01:36:13;;;;;;;0.35;0.35;;;;;;;;;;1044034;28;20032;-72
2023/07/08 01:36:48;;;;;;;4.57;1.92;;;;;;;;;;1039775;28;20021;-72
2023/07/08 01:37:19;;;;;;;1.40;0.63;;;;;;;;;;1039582;28;20124;-73
2023/07/08 01:37:57;;;;;;;1.75;0.63;;;;;;;;;;1039726;28;20028;-73
2023/07/08 01:38:28;;;;;;;1.45;0.65;;;;;;;;;;1042608;28;20087;-73
2023/07/08 01:38:58;;;;;;;0.50;0.20;;;;;;;;;;1044222;28;20094;-73
2023/07/08 01:39:30;;;;;;;0.75;0.52;;;;;;;;;;1044415;28;20720;-73
2023/07/08 01:40:16;;;;;;;1.98;0.52;;;;;;;;;;1043680;28;20392;-73
2023/07/08 01:40:51;;;;;;;2.13;0.65;;;;;;;;;;1044152;28;20066;-73
2023/07/08 01:41:22;;;;;;;0.00;0.00;;;;;;;;;;1044372;28;20067;-73
2023/07/08 01:41:53;;;;;;;1.10;1.00;;;;;;;;;;1043738;28;20025;-73
2023/07/08 01:42:24;;;;;;;0.38;0.35;;;;;;;;;;1044339;28;20404;-73
2023/07/08 01:42:54;;;;;;;0.60;0.57;;;;;;;;;;1044627;28;20024;-73
2023/07/08 01:43:25;;;;;;;1.17;0.68;;;;;;;;;;1043047;28;20044;-73
2023/07/08 01:43:55;;;;;;;0.10;0.10;;;;;;;;;;1044005;28;20419;-73
2023/07/08 01:44:44;;;;;;;3.63;0.57;;;;;;;;;;1044315;28;20489;-73
2023/07/08 01:45:16;;;;;;;1.05;0.52;;;;;;;;;;1039553;28;20147;-73
2023/07/08 01:45:47;;;;;;;0.43;0.38;;;;;;;;;;1039465;28;20037;-73
2023/07/08 01:46:21;;;;;;;0.17;0.17;;;;;;;;;;1040134;28;20021;-73
2023/07/08 01:46:54;;;;;;;3.78;0.70;;;;;;;;;;1039718;28;20048;-73
2023/07/08 01:47:24;;;;;;;2.33;0.73;;;;;;;;;;1040184;28;20013;-73
2023/07/08 01:47:58;;;;;;;0.55;0.50;;;;;;;;;;1044006;28;20029;-73
2023/07/08 01:48:31;;;;;;;0.57;0.57;;;;;;;;;;1044444;28;20017;-73
2023/07/08 01:49:01;;;;;;;0.20;0.20;;;;;;;;;;1044229;28;20071;-73
2023/07/08 01:49:33;;;;;;;0.15;0.15;;;;;;;;;;1044191;28;20028;-73
2023/07/08 01:50:04;;;;;;;2.03;0.65;;;;;;;;;;1043756;28;20480;-73
2023/07/08 01:50:36;;;;;;;2.10;0.70;;;;;;;;;;1044253;28;20025;-73
2023/07/08 01:51:07;;;;;;;0.03;0.03;;;;;;;;;;1044024;28;20032;-73
2023/07/08 01:51:38;;;;;;;0.15;0.15;;;;;;;;;;1043791;28;20029;-73
2023/07/08 01:52:09;;;;;;;0.00;0.00;;;;;;;;;;1044467;28;20146;-73
2023/07/08 01:52:39;;;;;;;0.35;0.22;;;;;;;;;;1043254;28;20032;-73
2023/07/08 01:53:13;;;;;;;0.95;0.95;;;;;;;;;;1043293;28;20640;-73
2023/07/08 01:53:44;;;;;;;0.08;0.08;;;;;;;;;;1044069;28;20172;-73
2023/07/08 01:54:14;;;;;;;0.73;0.65;;;;;;;;;;1039987;28;20127;-73
2023/07/08 01:54:45;;;;;;;1.75;1.33;;;;;;;;;;1039779;28;20032;-73
2023/07/08 01:55:15;;;;;;;2.53;0.60;;;;;;;;;;1039857;28;20382;-73
2023/07/08 01:55:46;;;;;;;3.13;0.65;;;;;;;;;;1039764;28;20017;-73
2023/07/08 01:56:16;;;;;;;0.00;0.00;;;;;;;;;;1044336;28;20017;-73
2023/07/08 01:56:51;;;;;;;0.43;0.35;;;;;;;;;;1044286;28;20029;-73
2023/07/08 01:57:22;;;;;;;0.35;0.35;;;;;;;;;;1044387;28;20112;-73
2023/07/08 01:57:55;;;;;;;2.67;1.27;;;;;;;;;;1043714;28;20020;-73
2023/07/08 01:58:26;;;;;;;1.08;0.68;;;;;;;;;;1043278;28;20028;-73
2023/07/08 01:58:56;;;;;;;0.73;0.73;;;;;;;;;;1040012;28;20524;-73
2023/07/08 01:59:27;;;;;;;4.72;0.73;;;;;;;;;;1039989;28;20088;-73
2023/07/08 01:59:57;;;;;;;0.10;0.10;;;;;;;;;;1039463;28;20716;-73
2023/07/08 02:00:28;;;;;;;1.95;0.45;;;;;;;;;;1040012;28;20040;-73
2023/07/08 02:00:59;;;;;;;1.38;1.27;;;;;;;;;;1039874;28;20094;-73
2023/07/08 02:01:29;;;;;;;2.22;1.45;;;;;;;;;;1039928;28;20035;-73
2023/07/08 02:02:00;;;;;;;0.75;0.73;;;;;;;;;;1039484;28;20411;-73
2023/07/08 02:02:31;;;;;;;1.60;0.95;;;;;;;;;;1039566;28;20021;-73
2023/07/08 02:03:01;;;;;;;1.67;0.75;;;;;;;;;;1042922;28;20485;-73
2023/07/08 02:03:32;;;;;;;1.55;1.45;;;;;;;;;;1039328;28;20028;-73
2023/07/08 02:04:02;;;;;;;1.80;0.75;;;;;;;;;;1039577;28;20025;-73
2023/07/08 02:04:33;;;;;;;1.48;0.93;;;;;;;;;;1039638;28;20120;-73
2023/07/08 02:05:06;;;;;;;0.90;0.75;;;;;;;;;;1039787;28;20022;-73
2023/07/08 02:05:37;;;;;;;0.80;0.45;;;;;;;;;;1043864;28;20021;-73
2023/07/08 02:06:08;;;;;;;0.00;0.00;;;;;;;;;;1044097;28;20033;-73
2023/07/08 02:06:38;;;;;;;1.55;0.52;;;;;;;;;;1043950;28;20036;-73
2023/07/08 02:07:09;;;;;;;0.08;0.08;;;;;;;;;;1044075;28;20025;-73
2023/07/08 02:07:39;;;;;;;0.00;0.00;;;;;;;;;;1043463;28;20460;-73
2023/07/08 02:08:10;;;;;;;0.75;0.50;;;;;;;;;;1038599;28;20021;-73
2023/07/08 02:08:40;;;;;;;6.25;0.80;;;;;;;;;;1039746;28;20061;-73
2023/07/08 02:09:10;;;;;;;0.82;0.82;;;;;;;;;;1039769;28;20044;-73
2023/07/08 02:09:41;;;;;;;0.98;0.85;;;;;;;;;;1039464;28;20116;-73
2023/07/08 02:10:12;;;;;;;3.13;2.15;;;;;;;;;;1039957;28;20017;-73
2023/07/08 02:10:43;;;;;;;0.82;0.70;;;;;;;;;;1039834;28;20061;-73
2023/07/08 02:11:13;;;;;;;0.50;0.15;;;;;;;;;;1040108;28;20029;-73
2023/07/08 02:11:44;;;;;;;0.00;0.00;;;;;;;;;;1043991;28;20017;-73
2023/07/08 02:12:14;;;;;;;0.13;0.13;;;;;;;;;;1044186;28;20044;-73
2023/07/08 02:12:45;;;;;;;1.08;0.15;;;;;;;;;;1044145;28;20089;-73
2023/07/08 02:13:15;;;;;;;0.47;0.30;;;;;;;;;;1044233;28;20025;-73
2023/07/08 02:13:46;;;;;;;0.00;0.00;;;;;;;;;;1043968;28;20027;-73
2023/07/08 02:14:16;;;;;;;0.45;0.40;;;;;;;;;;1044197;28;20028;-73
2023/07/08 02:14:47;;;;;;;0.10;0.10;;;;;;;;;;1044181;28;20024;-73
2023/07/08 02:15:18;;;;;;;0.93;0.17;;;;;;;;;;1043900;28;20391;-73
2023/07/08 02:15:48;;;;;;;0.47;0.47;;;;;;;;;;1043276;28;20052;-73
2023/07/08 02:16:19;;;;;;;0.13;0.08;;;;;;;;;;1044406;28;20033;-73
2023/07/08 02:16:49;;;;;;;0.10;0.10;;;;;;;;;;1039723;28;20014;-73
2023/07/08 02:17:20;;;;;;;0.60;0.55;;;;;;;;;;1039865;28;20362;-73
2023/07/08 02:17:50;;;;;;;0.10;0.10;;;;;;;;;;1039324;28;20072;-73
2023/07/08 02:18:23;;;;;;;0.57;0.57;;;;;;;;;;1040132;28;20021;-73
2023/07/08 02:18:54;;;;;;;0.40;0.40;;;;;;;;;;1043977;28;20032;-73
2023/07/08 02:19:24;;;;;;;0.75;0.38;;;;;;;;;;1044650;28;20028;-73
2023/07/08 02:19:55;;;;;;;0.40;0.40;;;;;;;;;;1042109;28;20046;-73
2023/07/08 02:20:26;;;;;;;0.60;0.43;;;;;;;;;;1039363;28;20021;-73
2023/07/08 02:20:56;;;;;;;1.05;0.75;;;;;;;;;;1039623;28;20033;-73
2023/07/08 02:21:30;;;;;;;0.80;0.70;;;;;;;;;;1039762;28;20129;-73
2023/07/08 02:22:01;;;;;;;0.00;0.00;;;;;;;;;;1039898;28;20066;-73
2023/07/08 02:22:31;;;;;;;0.63;0.63;;;;;;;;;;1039624;28;20096;-73
2023/07/08 02:23:02;;;;;;;0.52;0.50;;;;;;;;;;1039555;28;20030;-73
2023/07/08 02:23:32;;;;;;;0.98;0.88;;;;;;;;;;1039184;28;20025;-73
2023/07/08 02:24:03;;;;;;;0.98;0.98;;;;;;;;;;1038936;28;20421;-73
2023/07/08 02:24:33;;;;;;;3.80;0.30;;;;;;;;;;1043711;28;20024;-73
2023/07/08 02:25:05;;;;;;;1.17;0.55;;;;;;;;;;1044042;28;20035;-73
2023/07/08 02:25:35;;;;;;;0.00;0.00;;;;;;;;;;1043967;28;20116;-73
2023/07/08 02:26:06;;;;;;;0.20;0.17;;;;;;;;;;1044290;28;20035;-73
2023/07/08 02:26:36;;;;;;;0.20;0.20;;;;;;;;;;1044252;28;20024;-73
2023/07/08 02:27:07;;;;;;;0.10;0.10;;;;;;;;;;1039210;28;20163;-73
2023/07/08 02:27:38;;;;;;;3.72;1.38;;;;;;;;;;1039169;28;20037;-73
2023/07/08 02:28:09;;;;;;;1.58;0.93;;;;;;;;;;1039817;28;20017;-73
2023/07/08 02:28:39;;;;;;;0.10;0.10;;;;;;;;;;1040055;28;20025;-73
2023/07/08 02:29:10;;;;;;;0.00;0.00;;;;;;;;;;1043025;28;20016;-73
2023/07/08 02:29:41;;;;;;;1.55;0.80;;;;;;;;;;1043885;28;20380;-73
2023/07/08 02:30:11;;;;;;;0.17;0.17;;;;;;;;;;1044048;28;20052;-73
2023/07/08 02:30:42;;;;;;;0.30;0.10;;;;;;;;;;1044245;28;20036;-73
2023/07/08 02:31:12;;;;;;;0.00;0.00;;;;;;;;;;1039682;28;20020;-73
2023/07/08 02:31:43;;;;;;;1.48;0.30;;;;;;;;;;1039488;28;20013;-73
2023/07/08 02:32:13;;;;;;;12.50;0.75;;;;;;;;;;1039578;28;20029;-73
2023/07/08 02:32:56;;;;;;;0.25;0.25;;;;;;;;;;1037756;28;20362;-73
2023/07/08 02:33:32;;;;;;;0.00;0.00;;;;;;;;;;1039765;28;20052;-73
2023/07/08 02:34:03;;;;;;;0.08;0.08;;;;;;;;;;1039503;28;20035;-73
2023/07/08 02:34:33;;;;;;;0.08;0.08;;;;;;;;;;1042503;28;20018;-73
2023/07/08 02:35:04;;;;;;;0.00;0.00;;;;;;;;;;1044389;28;20024;-73
2023/07/08 02:35:35;;;;;;;0.00;0.00;;;;;;;;;;1039422;28;20498;-73
2023/07/08 02:36:06;;;;;;;0.00;0.00;;;;;;;;;;1039640;28;20022;-73
2023/07/08 02:36:38;;;;;;;0.20;0.20;;;;;;;;;;1039528;28;20029;-73
2023/07/08 02:37:09;;;;;;;0.65;0.65;;;;;;;;;;1037894;28;20444;-73
2023/07/08 02:37:39;;;;;;;0.00;0.00;;;;;;;;;;1038476;28;20013;-73
2023/07/08 02:38:10;;;;;;;0.00;0.00;;;;;;;;;;1036839;28;20018;-73
2023/07/08 02:38:40;;;;;;;0.00;0.00;;;;;;;;;;1034331;28;20026;-73
2023/07/08 02:39:11;;;;;;;0.00;0.00;;;;;;;;;;1039213;28;20017;-73
2023/07/08 02:39:41;;;;;;;0.00;0.00;;;;;;;;;;1039310;28;20029;-73
2023/07/08 02:40:12;;;;;;;0.00;0.00;;;;;;;;;;1039340;28;20112;-73
2023/07/08 02:40:43;;;;;;;0.47;0.47;;;;;;;;;;1039568;28;20025;-73
2023/07/08 02:41:13;;;;;;;0.00;0.00;;;;;;;;;;1039677;28;20018;-73
2023/07/08 02:41:44;;;;;;;0.00;0.00;;;;;;;;;;1039417;28;20489;-73
2023/07/08 02:42:14;;;;;;;0.00;0.00;;;;;;;;;;1039728;28;20029;-73
2023/07/08 02:42:45;;;;;;;0.00;0.00;;;;;;;;;;1037259;28;20022;-73
2023/07/08 02:43:15;;;;;;;4.68;1.27;;;;;;;;;;1036760;28;20014;-73
2023/07/08 02:43:46;;;;;;;0.08;0.08;;;;;;;;;;1036806;28;20390;-73
2023/07/08 02:44:16;;;;;;;0.57;0.55;;;;;;;;;;1042182;28;20028;-73
2023/07/08 02:44:47;;;;;;;0.15;0.15;;;;;;;;;;1043967;28;20465;-73
2023/07/08 02:45:19;;;;;;;0.65;0.65;;;;;;;;;;1043588;28;20218;-73
2023/07/08 02:45:50;;;;;;;0.70;0.60;;;;;;;;;;1043452;28;20074;-73
2023/07/08 02:46:21;;;;;;;0.00;0.00;;;;;;;;;;1042607;28;20040;-73
2023/07/08 02:46:51;;;;;;;1.30;0.60;;;;;;;;;;1043675;28;20476;-73
2023/07/08 02:47:22;;;;;;;0.00;0.00;;;;;;;;;;1043894;28;20071;-73
2023/07/08 02:47:52;;;;;;;0.00;0.00;;;;;;;;;;1043614;28;20477;-73
2023/07/08 02:48:23;;;;;;;1.40;0.70;;;;;;;;;;1044085;28;20052;-73
2023/07/08 02:48:53;;;;;;;0.55;0.52;;;;;;;;;;1044164;28;20090;-73
2023/07/08 02:49:24;;;;;;;0.40;0.40;;;;;;;;;;1044132;28;20392;-73
2023/07/08 02:49:54;;;;;;;0.00;0.00;;;;;;;;;;1043635;28;20480;-73
2023/07/08 02:50:25;;;;;;;0.10;0.10;;;;;;;;;;1043941;28;20066;-73
2023/07/08 02:50:59;;;;;;;0.00;0.00;;;;;;;;;;1043930;28;20464;-73
2023/07/08 02:51:30;;;;;;;0.00;0.00;;;;;;;;;;1044111;28;20028;-73
2023/07/08 02:52:00;;;;;;;0.65;0.43;;;;;;;;;;1043721;28;20020;-73
2023/07/08 02:52:31;;;;;;;0.00;0.00;;;;;;;;;;1044164;28;20119;-73
2023/07/08 02:53:01;;;;;;;0.00;0.00;;;;;;;;;;1039469;28;20507;-73
2023/07/08 02:53:32;;;;;;;0.10;0.10;;;;;;;;;;1039781;28;20022;-73
2023/07/08 02:54:02;;;;;;;0.00;0.00;;;;;;;;;;1039519;28;20025;-73
2023/07/08 02:54:33;;;;;;;0.45;0.30;;;;;;;;;;1039825;28;20551;-73
2023/07/08 02:55:04;;;;;;;0.10;0.10;;;;;;;;;;1039373;28;20386;-73
2023/07/08 02:55:34;;;;;;;0.08;0.08;;;;;;;;;;1039998;28;20025;-73
2023/07/08 02:56:05;;;;;;;0.00;0.00;;;;;;;;;;1039552;28;20029;-74
2023/07/08 02:56:35;;;;;;;0.00;0.00;;;;;;;;;;1039862;28;20029;-74
2023/07/08 02:57:06;;;;;;;0.00;0.00;;;;;;;;;;1043930;28;20024;-74
2023/07/08 02:57:36;;;;;;;0.00;0.00;;;;;;;;;;1044218;28;20021;-74
2023/07/08 02:58:07;;;;;;;0.20;0.20;;;;;;;;;;1043791;28;20685;-74
2023/07/08 02:58:37;;;;;;;0.00;0.00;;;;;;;;;;1043897;28;20029;-74
2023/07/08 02:59:08;;;;;;;0.00;0.00;;;;;;;;;;1043804;28;20197;-73
2023/07/08 02:59:39;;;;;;;0.30;0.30;;;;;;;;;;1043934;28;20091;-73
2023/07/08 03:00:10;;;;;;;0.00;0.00;;;;;;;;;;1044087;28;20063;-73
2023/07/08 03:00:40;;;;;;;1.10;0.63;;;;;;;;;;1043954;28;20403;-73
2023/07/08 03:01:10;;;;;;;0.00;0.00;;;;;;;;;;1039737;28;20363;-73
2023/07/08 03:01:41;;;;;;;0.85;0.85;;;;;;;;;;1039304;28;20060;-73
2023/07/08 03:02:12;;;;;;;0.00;0.00;;;;;;;;;;1039991;28;20025;-73
2023/07/08 03:02:42;;;;;;;0.10;0.10;;;;;;;;;;1039112;28;20052;-73
2023/07/08 03:03:16;;;;;;;0.00;0.00;;;;;;;;;;1037873;28;20374;-73
2023/07/08 03:03:47;;;;;;;0.05;0.05;;;;;;;;;;1039170;28;20071;-73
2023/07/08 03:04:18;;;;;;;0.05;0.05;;;;;;;;;;1039815;28;20100;-73
2023/07/08 03:04:49;;;;;;;0.10;0.10;;;;;;;;;;1043766;28;20027;-73
2023/07/08 03:05:20;;;;;;;0.65;0.65;;;;;;;;;;1043644;28;20032;-73
2023/07/08 03:05:58;;;;;;;0.00;0.00;;;;;;;;;;1043571;28;20017;-73
2023/07/08 03:06:29;;;;;;;1.45;0.80;;;;;;;;;;1043912;28;20108;-73
2023/07/08 03:07:00;;;;;;;0.57;0.47;;;;;;;;;;1043870;28;20036;-73
2023/07/08 03:07:30;;;;;;;0.05;0.05;;;;;;;;;;1044019;28;20025;-73
2023/07/08 03:08:01;;;;;;;0.60;0.45;;;;;;;;;;1043754;28;20162;-73
2023/07/08 03:08:31;;;;;;;1.75;0.20;;;;;;;;;;1044107;28;20029;-73
2023/07/08 03:09:02;;;;;;;1.00;0.40;;;;;;;;;;1044412;28;20376;-73
2023/07/08 03:09:32;;;;;;;2.20;0.47;;;;;;;;;;1043478;28;20024;-72
2023/07/08 03:10:03;;;;;;;0.00;0.00;;;;;;;;;;1038859;28;20029;-72
2023/07/08 03:10:34;;;;;;;0.00;0.00;;;;;;;;;;1039728;28;20085;-72